HomeShort term forecast

Short term forecast

Graphical weather forecast for the next 48 hours for Montreal:
Short term forecast
This weather forecast is automatically refreshed every 3 hours.

Hourly Experimental Forecast for the next 48 hours ®

Overall summary: Rain starting later this afternoon, continuing until this evening.

 Date & Hour   Temp   Feel   Baro   Hum   Speed & Bearing   Wind Gust   Precip.%   Precip.   Visibility   Cloud cover   Conditions 
 24/06/2018 - 15:00  24.0°C  24.1°C  1009.2 hPa  63%  5.0 km/h   8.6 km/h  8%  0.08 mm/h  16.1km  100%  Overcast 
 24/06/2018 - 16:00  24.1°C  24.2°C  1009.4 hPa  63%  8.0 km/h   9.9 km/h  33%  0.81 mm/h  16.1km  94%  Light Rain 
 24/06/2018 - 17:00  22.2°C  22.4°C  1009.8 hPa  73%  12.3 km/h   18.6 km/h  56%  1.99 mm/h  9.7km  87%  Rain 
 24/06/2018 - 18:00  20.7°C  20.8°C  1010.4 hPa  76%  14.3 km/h   25.3 km/h  59%  1.47 mm/h  11.0km  90%  Rain 
 24/06/2018 - 19:00  19.2°C  19.2°C  1011.1 hPa  78%  14.7 km/h   25.0 km/h  54%  0.68 mm/h  13.0km  88%  Light Rain 
 24/06/2018 - 20:00  18.0°C  18.0°C  1011.8 hPa  77%  14.5 km/h   30.2 km/h  54%  0.66 mm/h  15.4km  87%  Light Rain 
 24/06/2018 - 21:00  17.0°C  17.0°C  1012.4 hPa  79%  13.9 km/h   29.3 km/h  50%  0.38 mm/h  15.5km  94%  Overcast 
 24/06/2018 - 22:00  16.5°C  16.5°C  1012.9 hPa  80%  10.1 km/h   25.2 km/h  42%  0.26 mm/h  15.4km  92%  Mostly Cloudy 
 24/06/2018 - 23:00  15.8°C  15.8°C  1013.5 hPa  81%  7.4 km/h   20.3 km/h  24%  0.15 mm/h  16.1km  79%  Mostly Cloudy 
 25/06/2018 - 00:00  15.1°C  15.1°C  1013.7 hPa  83%  7.6 km/h   17.7 km/h  9%  0.07 mm/h  16.1km  69%  Mostly Cloudy 
 25/06/2018 - 01:00  14.3°C  14.3°C  1013.5 hPa  87%  7.7 km/h   14.3 km/h  4%  0.02 mm/h  16.1km  57%  Partly Cloudy 
 25/06/2018 - 02:00  13.7°C  13.7°C  1013.7 hPa  88%  8.6 km/h   14.8 km/h  4%  0.04 mm/h  16.1km  47%  Partly Cloudy 
 25/06/2018 - 03:00  12.7°C  12.7°C  1014.0 hPa  86%  9.7 km/h   11.8 km/h  2%  0.01 mm/h  16.1km  62%  Mostly Cloudy 
 25/06/2018 - 04:00  11.7°C  11.7°C  1014.5 hPa  84%  9.7 km/h   10.7 km/h  0%  --  16.1km  38%  Partly Cloudy 
 25/06/2018 - 05:00  11.2°C  11.2°C  1014.9 hPa  81%  10.5 km/h   11.2 km/h  0%  --  16.1km  30%  Partly Cloudy 
 25/06/2018 - 06:00  11.8°C  11.8°C  1015.6 hPa  76%  11.8 km/h   14.0 km/h  0%  --  16.1km  31%  Partly Cloudy 
 25/06/2018 - 07:00  13.2°C  13.2°C  1016.3 hPa  69%  12.1 km/h   18.3 km/h  0%  --  16.1km  27%  Partly Cloudy 
 25/06/2018 - 08:00  15.1°C  15.1°C  1016.9 hPa  60%  13.0 km/h   21.8 km/h  0%  --  16.1km  25%  Partly Cloudy 
 25/06/2018 - 09:00  16.8°C  16.8°C  1017.4 hPa  52%  14.8 km/h   23.6 km/h  0%  --  16.1km  23%  Clear 
 25/06/2018 - 10:00  18.3°C  18.3°C  1017.7 hPa  45%  16.3 km/h   24.7 km/h  0%  --  16.1km  21%  Clear 
 25/06/2018 - 11:00  19.5°C  19.5°C  1018.0 hPa  40%  17.8 km/h   25.4 km/h  0%  --  16.1km  18%  Clear 
 25/06/2018 - 12:00  20.5°C  20.5°C  1018.1 hPa  36%  18.3 km/h   25.5 km/h  0%  --  16.1km  16%  Clear 
 25/06/2018 - 13:00  21.4°C  21.4°C  1018.2 hPa  34%  18.4 km/h   25.2 km/h  0%  --  16.1km  12%  Clear 
 25/06/2018 - 14:00  22.4°C  22.4°C  1018.4 hPa  31%  18.4 km/h   25.0 km/h  0%  --  16.1km  9%  Clear 
 25/06/2018 - 15:00  23.2°C  23.2°C  1018.6 hPa  30%  18.7 km/h   25.5 km/h  0%  --  16.1km  8%  Clear 
 25/06/2018 - 16:00  23.7°C  23.7°C  1018.8 hPa  29%  18.9 km/h   26.2 km/h  0%  --  16.1km  8%  Clear 
 25/06/2018 - 17:00  23.5°C  23.5°C  1019.1 hPa  30%  18.3 km/h   26.0 km/h  0%  --  16.1km  8%  Clear 
 25/06/2018 - 18:00  22.7°C  22.7°C  1019.5 hPa  33%  16.6 km/h   24.2 km/h  0%  --  16.1km  7%  Clear 
 25/06/2018 - 19:00  21.6°C  21.6°C  1020.1 hPa  37%  14.3 km/h   21.6 km/h  0%  --  16.1km  7%  Clear 
 25/06/2018 - 20:00  20.5°C  20.5°C  1020.7 hPa  40%  11.8 km/h   18.9 km/h  0%  --  16.1km  6%  Clear 
 25/06/2018 - 21:00  19.0°C  19.0°C  1021.3 hPa  43%  10.1 km/h   15.9 km/h  0%  --  16.1km  5%  Clear 
 25/06/2018 - 22:00  17.4°C  17.4°C  1021.9 hPa  46%  9.4 km/h   12.9 km/h  0%  --  16.1km  2%  Clear 
 25/06/2018 - 23:00  15.8°C  15.8°C  1022.5 hPa  49%  8.8 km/h   10.7 km/h  0%  --  16.1km  1%  Clear 
 26/06/2018 - 00:00  14.4°C  14.4°C  1023.0 hPa  52%  8.0 km/h   9.8 km/h  0%  --  16.1km  0%  Clear 
 26/06/2018 - 01:00  13.2°C  13.2°C  1023.3 hPa  55%  7.3 km/h   9.5 km/h  0%  --  16.1km  0%  Clear 
 26/06/2018 - 02:00  12.1°C  12.1°C  1023.5 hPa  58%  6.7 km/h   9.1 km/h  0%  --  16.1km  0%  Clear 
 26/06/2018 - 03:00  11.0°C  11.0°C  1023.7 hPa  61%  6.3 km/h   8.0 km/h  0%  --  16.1km  0%  Clear 
 26/06/2018 - 04:00  10.1°C  10.1°C  1023.9 hPa  63%  6.0 km/h   6.7 km/h  0%  --  16.1km  0%  Clear 
 26/06/2018 - 05:00  9.9°C  9.4°C  1024.1 hPa  64%  5.8 km/h   5.9 km/h  0%  --  16.1km  0%  Clear 
 26/06/2018 - 06:00  11.1°C  11.1°C  1024.5 hPa  61%  5.4 km/h   5.5 km/h  0%  --  16.1km  0%  Clear 
 26/06/2018 - 07:00  13.6°C  13.6°C  1024.8 hPa  55%  5.1 km/h   5.3 km/h  0%  --  16.1km  0%  Clear 
 26/06/2018 - 08:00  16.1°C  16.1°C  1025.0 hPa  49%  5.0 km/h   6.2 km/h  0%  --  16.1km  0%  Clear 
 26/06/2018 - 09:00  18.0°C  18.0°C  1024.8 hPa  45%  5.8 km/h   9.0 km/h  0%  --  16.1km  1%  Clear 
 26/06/2018 - 10:00  19.7°C  19.7°C  1024.5 hPa  42%  7.1 km/h   12.7 km/h  0%  --  16.1km  9%  Clear 
 26/06/2018 - 11:00  21.1°C  21.1°C  1024.1 hPa  40%  9.0 km/h   15.6 km/h  0%  --  16.1km  0%  Clear 
 26/06/2018 - 12:00  22.3°C  22.3°C  1023.6 hPa  38%  10.9 km/h   17.1 km/h  0%  --  16.1km  17%  Clear 
 26/06/2018 - 13:00  23.2°C  23.2°C  1023.0 hPa  36%  12.4 km/h   18.2 km/h  0%  --  16.1km  6%  Clear 
 26/06/2018 - 14:00  24.4°C  24.4°C  1022.3 hPa  34%  14.1 km/h   19.3 km/h  0%  --  16.1km  7%  Clear 
Test

 

Past weather and reports

Past weatherFind in this section the past weather conditions, weather archive, graphics, reports and statistics.

Current conditions

Current weather condition for MontrealAll you need to know about the current weather conditions for Montreal. Weather data is updated every 10 minutes.

Weather forecast

Current Montreal weatherSince 2004, celinium.com website has provided accurate weather forecast for Montreal's island.